PKDNI WARR-WIMM
Flight info
| Callsign | PKDNI |
|---|---|
| Flight time | N/A |
| Altitude | 34000 |
| Route | LASEM T2 KALUT T6 CKG T10 AKPER |
| Aircraft | A320/M-SDE3FGHIRWY/LB1 |
Departure
| Time | 2026-04-27 08:10 |
|---|---|
| Airport | Juanda International Airport (WARR) |
Arrival
| Time | N/A |
|---|---|
| Airport | Kualanamu International Airport (WIMM) |
| Time | Latitude | Longitude | Altitude | Speed | Heading |
|---|---|---|---|---|---|
| 2026-04-27 07:47 | -7.37537 | 112.79185 | 24 ft | 0 kts | 9° |
| 2026-04-27 08:01 | -7.37548 | 112.79183 | 23 ft | 3 kts | 10° |
| 2026-04-27 08:01 | -7.37568 | 112.79179 | 23 ft | 3 kts | 12° |
| 2026-04-27 08:01 | -7.37587 | 112.79175 | 23 ft | 3 kts | 17° |
| 2026-04-27 08:01 | -7.37606 | 112.79168 | 23 ft | 3 kts | 27° |
| 2026-04-27 08:02 | -7.37622 | 112.79157 | 23 ft | 3 kts | 59° |
| 2026-04-27 08:02 | -7.37626 | 112.79147 | 23 ft | 1 kts | 99° |
| 2026-04-27 08:02 | -7.37626 | 112.79146 | 23 ft | 0 kts | 99° |
| 2026-04-27 08:04 | -7.37628 | 112.79154 | 23 ft | 2 kts | 99° |
| 2026-04-27 08:04 | -7.37631 | 112.79172 | 23 ft | 6 kts | 99° |
| 2026-04-27 08:05 | -7.37643 | 112.79272 | 23 ft | 15 kts | 90° |
| 2026-04-27 08:05 | -7.37657 | 112.79351 | 23 ft | 19 kts | 104° |
| 2026-04-27 08:05 | -7.37686 | 112.79497 | 23 ft | 23 kts | 96° |
| 2026-04-27 08:05 | -7.37712 | 112.79668 | 23 ft | 27 kts | 97° |
| 2026-04-27 08:06 | -7.37714 | 112.79683 | 23 ft | 27 kts | 99° |
| 2026-04-27 08:06 | -7.37726 | 112.79756 | 23 ft | 13 kts | 98° |
| 2026-04-27 08:06 | -7.37771 | 112.79806 | 23 ft | 12 kts | 180° |
| 2026-04-27 08:07 | -7.37866 | 112.79793 | 23 ft | 16 kts | 190° |
| 2026-04-27 08:07 | -7.37978 | 112.79797 | 23 ft | 18 kts | 139° |
| 2026-04-27 08:07 | -7.38002 | 112.79918 | 23 ft | 20 kts | 99° |
| 2026-04-27 08:07 | -7.38031 | 112.80033 | 23 ft | 14 kts | 161° |
| 2026-04-27 08:08 | -7.38101 | 112.80036 | 23 ft | 0 kts | 191° |
| 2026-04-27 08:09 | -7.38112 | 112.80033 | 23 ft | 5 kts | 191° |
| 2026-04-27 08:09 | -7.38184 | 112.80013 | 23 ft | 15 kts | 220° |
| 2026-04-27 08:09 | -7.38181 | 112.79905 | 23 ft | 20 kts | 281° |
| 2026-04-27 08:09 | -7.38127 | 112.79575 | 24 ft | 83 kts | 280° |
| 2026-04-27 08:10 | -7.38004 | 112.78785 | 34 ft | 141 kts | 283° |
| 2026-04-27 08:10 | -7.37852 | 112.77753 | 34 ft | 165 kts | 285° |
| 2026-04-27 08:10 | -7.37672 | 112.76643 | 281 ft | 154 kts | 293° |
| 2026-04-27 08:10 | -7.37364 | 112.75643 | 734 ft | 147 kts | 287° |
| 2026-04-27 08:11 | -7.37175 | 112.74571 | 1079 ft | 167 kts | 277° |
| 2026-04-27 08:11 | -7.37074 | 112.73380 | 1578 ft | 174 kts | 277° |
| 2026-04-27 08:11 | -7.36920 | 112.72095 | 1729 ft | 193 kts | 279° |
| 2026-04-27 08:11 | -7.36698 | 112.70723 | 2000 ft | 205 kts | 279° |
| 2026-04-27 08:12 | -7.36454 | 112.69256 | 2308 ft | 218 kts | 278° |
| 2026-04-27 08:12 | -7.36209 | 112.67707 | 2643 ft | 232 kts | 277° |
| 2026-04-27 08:12 | -7.35951 | 112.66056 | 3009 ft | 244 kts | 277° |
| 2026-04-27 08:12 | -7.35671 | 112.64322 | 3414 ft | 258 kts | 278° |
| 2026-04-27 08:13 | -7.35373 | 112.62485 | 3842 ft | 272 kts | 278° |
| 2026-04-27 08:13 | -7.35060 | 112.60565 | 4371 ft | 282 kts | 278° |
| 2026-04-27 08:13 | -7.34748 | 112.58621 | 5005 ft | 287 kts | 278° |
| 2026-04-27 08:13 | -7.34429 | 112.56626 | 5682 ft | 289 kts | 278° |
| 2026-04-27 08:14 | -7.34094 | 112.54633 | 6425 ft | 287 kts | 281° |
| 2026-04-27 08:14 | -7.33361 | 112.52755 | 7040 ft | 291 kts | 300° |
| 2026-04-27 08:14 | -7.32227 | 112.51078 | 7693 ft | 290 kts | 306° |
| 2026-04-27 08:14 | -7.30997 | 112.49446 | 8253 ft | 294 kts | 306° |
| 2026-04-27 08:15 | -7.29764 | 112.47770 | 8691 ft | 303 kts | 304° |
| 2026-04-27 08:15 | -7.28546 | 112.46023 | 9165 ft | 307 kts | 304° |
| 2026-04-27 08:15 | -7.27336 | 112.44234 | 9685 ft | 311 kts | 303° |
| 2026-04-27 08:15 | -7.26116 | 112.42431 | 10234 ft | 313 kts | 304° |
| 2026-04-27 08:16 | -7.25365 | 112.41328 | 10467 ft | 318 kts | 304° |
| 2026-04-27 08:16 | -7.24646 | 112.40276 | 10632 ft | 325 kts | 304° |
| 2026-04-27 08:17 | -7.23340 | 112.38375 | 10841 ft | 338 kts | 305° |
| 2026-04-27 08:17 | -7.21968 | 112.36388 | 10994 ft | 354 kts | 304° |
| 2026-04-27 08:17 | -7.20483 | 112.34348 | 11050 ft | 370 kts | 311° |
| 2026-04-27 08:17 | -7.18599 | 112.32535 | 11320 ft | 378 kts | 319° |
| 2026-04-27 08:18 | -7.16563 | 112.30841 | 11845 ft | 379 kts | 321° |
| 2026-04-27 08:18 | -7.14493 | 112.29193 | 12373 ft | 380 kts | 322° |
| 2026-04-27 08:18 | -7.12445 | 112.27552 | 12836 ft | 382 kts | 321° |
| 2026-04-27 08:18 | -7.10380 | 112.25851 | 13286 ft | 384 kts | 320° |
| 2026-04-27 08:19 | -7.08322 | 112.24119 | 13730 ft | 386 kts | 320° |
| 2026-04-27 08:19 | -7.06266 | 112.22371 | 14163 ft | 389 kts | 320° |
| 2026-04-27 08:19 | -7.04177 | 112.20608 | 14581 ft | 391 kts | 321° |
| 2026-04-27 08:19 | -7.02077 | 112.18850 | 14986 ft | 394 kts | 321° |
| 2026-04-27 08:20 | -6.99962 | 112.17086 | 15392 ft | 396 kts | 321° |
| 2026-04-27 08:20 | -6.97835 | 112.15308 | 15793 ft | 398 kts | 321° |
| 2026-04-27 08:20 | -6.95834 | 112.13369 | 16177 ft | 401 kts | 310° |
| 2026-04-27 08:20 | -6.94181 | 112.11089 | 16564 ft | 404 kts | 304° |
| 2026-04-27 08:21 | -6.92648 | 112.08706 | 16918 ft | 407 kts | 303° |
| 2026-04-27 08:21 | -6.91164 | 112.06303 | 17283 ft | 410 kts | 302° |
| 2026-04-27 08:21 | -6.89646 | 112.03874 | 17649 ft | 412 kts | 303° |
| 2026-04-27 08:21 | -6.88081 | 112.01453 | 17993 ft | 414 kts | 304° |
| 2026-04-27 08:22 | -6.86477 | 111.99036 | 18341 ft | 416 kts | 304° |
| 2026-04-27 08:22 | -6.84857 | 111.96609 | 18668 ft | 419 kts | 304° |
| 2026-04-27 08:22 | -6.83237 | 111.94160 | 19002 ft | 421 kts | 304° |
| 2026-04-27 08:22 | -6.81622 | 111.91691 | 19322 ft | 423 kts | 304° |
| 2026-04-27 08:23 | -6.80000 | 111.89199 | 19643 ft | 425 kts | 304° |
| 2026-04-27 08:23 | -6.78370 | 111.86696 | 19953 ft | 428 kts | 304° |
| 2026-04-27 08:23 | -6.76733 | 111.84193 | 20254 ft | 429 kts | 304° |
| 2026-04-27 08:23 | -6.75083 | 111.81678 | 20563 ft | 431 kts | 304° |
| 2026-04-27 08:24 | -6.73425 | 111.79155 | 20841 ft | 433 kts | 304° |
| 2026-04-27 08:24 | -6.71762 | 111.76622 | 21118 ft | 435 kts | 304° |
| 2026-04-27 08:24 | -6.70115 | 111.74106 | 21373 ft | 437 kts | 304° |
| 2026-04-27 08:24 | -6.68420 | 111.71517 | 21644 ft | 439 kts | 304° |
| 2026-04-27 08:25 | -6.66751 | 111.68969 | 21887 ft | 441 kts | 304° |
| 2026-04-27 08:25 | -6.65062 | 111.66394 | 22137 ft | 443 kts | 304° |
| 2026-04-27 08:25 | -6.63358 | 111.63797 | 22375 ft | 444 kts | 304° |
| 2026-04-27 08:25 | -6.61699 | 111.61178 | 22610 ft | 446 kts | 300° |
| 2026-04-27 08:26 | -6.60321 | 111.58642 | 22825 ft | 448 kts | 298° |
| 2026-04-27 08:26 | -6.58875 | 111.55858 | 23052 ft | 450 kts | 297° |
| 2026-04-27 08:26 | -6.57452 | 111.53054 | 23266 ft | 451 kts | 297° |
| 2026-04-27 08:26 | -6.56021 | 111.50237 | 23478 ft | 453 kts | 297° |
| 2026-04-27 08:27 | -6.54568 | 111.47421 | 23685 ft | 454 kts | 298° |
| 2026-04-27 08:27 | -6.53099 | 111.44610 | 23884 ft | 456 kts | 298° |
| 2026-04-27 08:27 | -6.51617 | 111.41785 | 24085 ft | 457 kts | 298° |
| 2026-04-27 08:27 | -6.50132 | 111.38944 | 24280 ft | 458 kts | 298° |
| 2026-04-27 08:28 | -6.48654 | 111.36098 | 24481 ft | 459 kts | 298° |
| 2026-04-27 08:28 | -6.47194 | 111.33280 | 24666 ft | 461 kts | 298° |
| 2026-04-27 08:28 | -6.45715 | 111.30424 | 24852 ft | 462 kts | 298° |
| 2026-04-27 08:28 | -6.44227 | 111.27559 | 25059 ft | 463 kts | 298° |
| 2026-04-27 08:29 | -6.42735 | 111.24694 | 25224 ft | 464 kts | 298° |
| 2026-04-27 08:29 | -6.41231 | 111.21806 | 25397 ft | 465 kts | 298° |
| 2026-04-27 08:29 | -6.39728 | 111.18918 | 25564 ft | 467 kts | 298° |
| 2026-04-27 08:29 | -6.38220 | 111.16023 | 25729 ft | 468 kts | 298° |
| 2026-04-27 08:30 | -6.36711 | 111.13121 | 25884 ft | 469 kts | 298° |
| 2026-04-27 08:30 | -6.35195 | 111.10210 | 26037 ft | 470 kts | 298° |
| 2026-04-27 08:30 | -6.33661 | 111.07314 | 26184 ft | 471 kts | 299° |
| 2026-04-27 08:30 | -6.32094 | 111.04420 | 26322 ft | 471 kts | 299° |
| 2026-04-27 08:31 | -6.30513 | 111.01527 | 26460 ft | 472 kts | 299° |
| 2026-04-27 08:31 | -6.28937 | 110.98624 | 26593 ft | 473 kts | 299° |
| 2026-04-27 08:31 | -6.27374 | 110.95712 | 26718 ft | 474 kts | 298° |
| 2026-04-27 08:31 | -6.25814 | 110.92788 | 26844 ft | 475 kts | 298° |
| 2026-04-27 08:32 | -6.24252 | 110.89866 | 26971 ft | 476 kts | 299° |
| 2026-04-27 08:32 | -6.22680 | 110.86935 | 27098 ft | 477 kts | 299° |
| 2026-04-27 08:32 | -6.21098 | 110.83994 | 27219 ft | 478 kts | 299° |
| 2026-04-27 08:32 | -6.19530 | 110.81083 | 27354 ft | 479 kts | 299° |
| 2026-04-27 08:33 | -6.17938 | 110.78127 | 27498 ft | 480 kts | 299° |
| 2026-04-27 08:33 | -6.16351 | 110.75175 | 27655 ft | 481 kts | 299° |
| 2026-04-27 08:33 | -6.14760 | 110.72217 | 27800 ft | 482 kts | 299° |
| 2026-04-27 08:33 | -6.13161 | 110.69241 | 27948 ft | 483 kts | 299° |
| 2026-04-27 08:34 | -6.11565 | 110.66272 | 28096 ft | 484 kts | 299° |
| 2026-04-27 08:34 | -6.09964 | 110.63296 | 28249 ft | 485 kts | 299° |
| 2026-04-27 08:34 | -6.08355 | 110.60310 | 28410 ft | 486 kts | 299° |
| 2026-04-27 08:34 | -6.06744 | 110.57321 | 28561 ft | 487 kts | 299° |
| 2026-04-27 08:35 | -6.05133 | 110.54328 | 28687 ft | 489 kts | 299° |
| 2026-04-27 08:35 | -6.03512 | 110.51311 | 28832 ft | 490 kts | 299° |
| 2026-04-27 08:35 | -6.01886 | 110.48286 | 28983 ft | 491 kts | 299° |
| 2026-04-27 08:35 | -6.00265 | 110.45278 | 29194 ft | 490 kts | 299° |
| 2026-04-27 08:36 | -5.99214 | 110.43331 | 29309 ft | 490 kts | 299° |
| 2026-04-27 08:36 | -5.97682 | 110.40276 | 29473 ft | 491 kts | 293° |
| 2026-04-27 08:36 | -5.96673 | 110.36998 | 29649 ft | 491 kts | 281° |
| 2026-04-27 08:36 | -5.96365 | 110.33586 | 29775 ft | 492 kts | 270° |
| 2026-04-27 08:37 | -5.96394 | 110.30195 | 29967 ft | 491 kts | 268° |
| 2026-04-27 08:37 | -5.96503 | 110.26764 | 30171 ft | 491 kts | 268° |
| 2026-04-27 08:37 | -5.96594 | 110.23335 | 30371 ft | 491 kts | 269° |
| 2026-04-27 08:37 | -5.96617 | 110.19908 | 30569 ft | 490 kts | 270° |
| 2026-04-27 08:38 | -5.96581 | 110.16492 | 30770 ft | 490 kts | 271° |
| 2026-04-27 08:38 | -5.96531 | 110.13065 | 30969 ft | 489 kts | 271° |
| 2026-04-27 08:38 | -5.96505 | 110.09650 | 31207 ft | 488 kts | 270° |
| 2026-04-27 08:38 | -5.96511 | 110.06246 | 31400 ft | 487 kts | 270° |
| 2026-04-27 08:39 | -5.96534 | 110.02843 | 31593 ft | 487 kts | 270° |
| 2026-04-27 08:39 | -5.96550 | 109.99445 | 31786 ft | 486 kts | 270° |
| 2026-04-27 08:39 | -5.96551 | 109.96049 | 31976 ft | 486 kts | 270° |
| 2026-04-27 08:39 | -5.96539 | 109.92665 | 32166 ft | 485 kts | 270° |
| 2026-04-27 08:40 | -5.96526 | 109.89284 | 32350 ft | 485 kts | 270° |
| 2026-04-27 08:40 | -5.96522 | 109.85892 | 32531 ft | 484 kts | 270° |
| 2026-04-27 08:40 | -5.96524 | 109.82556 | 32710 ft | 484 kts | 270° |
| 2026-04-27 08:40 | -5.96527 | 109.79141 | 32891 ft | 483 kts | 270° |
| 2026-04-27 08:41 | -5.96525 | 109.75812 | 33063 ft | 482 kts | 270° |
| 2026-04-27 08:41 | -5.96519 | 109.72442 | 33239 ft | 482 kts | 270° |
| 2026-04-27 08:41 | -5.96514 | 109.69075 | 33409 ft | 482 kts | 270° |
| 2026-04-27 08:41 | -5.96510 | 109.65715 | 33578 ft | 481 kts | 270° |
| 2026-04-27 08:42 | -5.96508 | 109.62355 | 33744 ft | 481 kts | 270° |
| 2026-04-27 08:42 | -5.96504 | 109.58998 | 33793 ft | 480 kts | 270° |
| 2026-04-27 08:42 | -5.96493 | 109.52299 | 33795 ft | 480 kts | 270° |
| 2026-04-27 08:43 | -5.96486 | 109.45596 | 33796 ft | 479 kts | 270° |
| 2026-04-27 08:43 | -5.96475 | 109.38908 | 33780 ft | 479 kts | 270° |
| 2026-04-27 08:44 | -5.96462 | 109.32209 | 33792 ft | 479 kts | 270° |
| 2026-04-27 08:44 | -5.96459 | 109.25538 | 33824 ft | 476 kts | 270° |
| 2026-04-27 08:45 | -5.96440 | 109.18875 | 33738 ft | 477 kts | 271° |
| 2026-04-27 08:45 | -5.96429 | 109.12222 | 33760 ft | 476 kts | 270° |
| 2026-04-27 08:46 | -5.96422 | 109.05726 | 33746 ft | 477 kts | 270° |
| 2026-04-27 08:46 | -5.96405 | 108.99020 | 33741 ft | 478 kts | 270° |
| 2026-04-27 08:47 | -5.96386 | 108.92341 | 33753 ft | 478 kts | 270° |
| 2026-04-27 08:47 | -5.96373 | 108.85697 | 33792 ft | 478 kts | 270° |
| 2026-04-27 08:48 | -5.96358 | 108.79011 | 33816 ft | 478 kts | 270° |
| 2026-04-27 08:48 | -5.96342 | 108.73462 | 33820 ft | 477 kts | 270° |
| 2026-04-27 08:49 | -5.96321 | 108.66790 | 33810 ft | 477 kts | 270° |
| 2026-04-27 08:49 | -5.96303 | 108.60133 | 33783 ft | 477 kts | 270° |
| 2026-04-27 08:50 | -5.96285 | 108.53466 | 33753 ft | 477 kts | 270° |
| 2026-04-27 08:50 | -5.96264 | 108.46799 | 33738 ft | 477 kts | 270° |
| 2026-04-27 08:51 | -5.96254 | 108.40136 | 33781 ft | 476 kts | 270° |
| 2026-04-27 08:51 | -5.96259 | 108.33490 | 33770 ft | 476 kts | 270° |
| 2026-04-27 08:52 | -5.96249 | 108.26831 | 33731 ft | 476 kts | 270° |
| 2026-04-27 08:52 | -5.96239 | 108.20176 | 33722 ft | 476 kts | 270° |
| 2026-04-27 08:53 | -5.96237 | 108.13563 | 33722 ft | 476 kts | 270° |
| 2026-04-27 08:53 | -5.96225 | 108.06912 | 33722 ft | 476 kts | 270° |
| 2026-04-27 08:54 | -5.96214 | 108.00255 | 33726 ft | 476 kts | 270° |
| 2026-04-27 08:54 | -5.96212 | 107.93597 | 33732 ft | 476 kts | 270° |
| 2026-04-27 08:55 | -5.96219 | 107.86945 | 33736 ft | 476 kts | 270° |
| 2026-04-27 08:55 | -5.96217 | 107.80296 | 33733 ft | 476 kts | 270° |
| 2026-04-27 08:56 | -5.96213 | 107.75801 | 33732 ft | 476 kts | 270° |
| 2026-04-27 08:57 | -5.96214 | 107.67788 | 33736 ft | 476 kts | 270° |
| 2026-04-27 08:58 | -5.96213 | 107.61140 | 33739 ft | 476 kts | 270° |
| 2026-04-27 08:58 | -5.96215 | 107.54523 | 33737 ft | 476 kts | 270° |
| 2026-04-27 08:59 | -5.96205 | 107.47872 | 33736 ft | 476 kts | 270° |
| 2026-04-27 08:59 | -5.96196 | 107.41215 | 33736 ft | 476 kts | 270° |
| 2026-04-27 09:00 | -5.96199 | 107.34556 | 33736 ft | 476 kts | 270° |
| 2026-04-27 09:00 | -5.96193 | 107.27903 | 33761 ft | 475 kts | 270° |
| 2026-04-27 09:01 | -5.96183 | 107.21310 | 33797 ft | 475 kts | 270° |
| 2026-04-27 09:01 | -5.96180 | 107.14674 | 33769 ft | 475 kts | 270° |
| 2026-04-27 09:02 | -5.96168 | 107.08039 | 33759 ft | 475 kts | 270° |
| 2026-04-27 09:02 | -5.97052 | 107.01501 | 33715 ft | 475 kts | 250° |
| 2026-04-27 09:03 | -5.99722 | 106.95432 | 33711 ft | 475 kts | 244° |
| 2026-04-27 09:03 | -6.02586 | 106.89455 | 33721 ft | 475 kts | 245° |
| 2026-04-27 09:04 | -6.05268 | 106.83389 | 33740 ft | 475 kts | 246° |
| 2026-04-27 09:04 | -6.07932 | 106.77308 | 33753 ft | 475 kts | 246° |
| 2026-04-27 09:05 | -6.10658 | 106.71305 | 33762 ft | 475 kts | 245° |
| 2026-04-27 09:05 | -6.13385 | 106.65251 | 33768 ft | 475 kts | 246° |
| 2026-04-27 09:06 | -6.15351 | 106.58974 | 33735 ft | 474 kts | 264° |
| 2026-04-27 09:06 | -6.15457 | 106.57613 | 33724 ft | 473 kts | 269° |
| 2026-04-27 09:07 | -6.15464 | 106.57290 | 33721 ft | 473 kts | 270° |
| 2026-04-27 09:07 | -6.15126 | 106.54013 | 33715 ft | 471 kts | 284° |
| 2026-04-27 09:07 | -6.14066 | 106.50918 | 33713 ft | 469 kts | 297° |
| 2026-04-27 09:07 | -6.12377 | 106.48124 | 33717 ft | 467 kts | 309° |
| 2026-04-27 09:08 | -6.10172 | 106.45734 | 33718 ft | 466 kts | 320° |
| 2026-04-27 09:08 | -6.05168 | 106.41666 | 33733 ft | 467 kts | 323° |
| 2026-04-27 09:09 | -6.00086 | 106.37595 | 33788 ft | 467 kts | 323° |
| 2026-04-27 09:09 | -5.94783 | 106.33838 | 33804 ft | 466 kts | 327° |
| 2026-04-27 09:10 | -5.89367 | 106.30244 | 33804 ft | 466 kts | 328° |
| 2026-04-27 09:10 | -5.83941 | 106.26657 | 33802 ft | 466 kts | 327° |
| 2026-04-27 09:11 | -5.78556 | 106.23047 | 33782 ft | 466 kts | 327° |
| 2026-04-27 09:11 | -5.73154 | 106.19439 | 33745 ft | 466 kts | 327° |
| 2026-04-27 09:12 | -5.67782 | 106.15864 | 33723 ft | 466 kts | 327° |
| 2026-04-27 09:12 | -5.62383 | 106.12259 | 33715 ft | 466 kts | 327° |
| 2026-04-27 09:13 | -5.56977 | 106.08656 | 33718 ft | 466 kts | 327° |
| 2026-04-27 09:13 | -5.51568 | 106.05049 | 33715 ft | 466 kts | 328° |
| 2026-04-27 09:14 | -5.46158 | 106.01443 | 33720 ft | 467 kts | 328° |
| 2026-04-27 09:14 | -5.40751 | 105.97842 | 33738 ft | 466 kts | 327° |
| 2026-04-27 09:15 | -5.35340 | 105.94237 | 33750 ft | 466 kts | 328° |
| 2026-04-27 09:15 | -5.29929 | 105.90630 | 33751 ft | 467 kts | 328° |
| 2026-04-27 09:16 | -5.24551 | 105.87051 | 33744 ft | 467 kts | 328° |
| 2026-04-27 09:16 | -5.23680 | 105.86472 | 33744 ft | 467 kts | 328° |
| 2026-04-27 09:17 | -5.19117 | 105.83432 | 33748 ft | 467 kts | 327° |
| 2026-04-27 09:18 | -5.13796 | 105.79672 | 33768 ft | 467 kts | 326° |
| 2026-04-27 09:18 | -5.08493 | 105.75888 | 33754 ft | 467 kts | 326° |
| 2026-04-27 09:19 | -5.03225 | 105.72144 | 33798 ft | 466 kts | 326° |
| 2026-04-27 09:19 | -4.97926 | 105.68380 | 33803 ft | 466 kts | 326° |
| 2026-04-27 09:20 | -4.92633 | 105.64614 | 33801 ft | 466 kts | 326° |
| 2026-04-27 09:20 | -4.87348 | 105.60854 | 33802 ft | 466 kts | 326° |
| 2026-04-27 09:21 | -4.82063 | 105.57101 | 33801 ft | 465 kts | 326° |
| 2026-04-27 09:21 | -4.76771 | 105.53341 | 33800 ft | 465 kts | 326° |
| 2026-04-27 09:22 | -4.71517 | 105.49607 | 33791 ft | 465 kts | 326° |
| 2026-04-27 09:22 | -4.66235 | 105.45856 | 33782 ft | 465 kts | 326° |
| 2026-04-27 09:23 | -4.60946 | 105.42102 | 33771 ft | 465 kts | 326° |
| 2026-04-27 09:23 | -4.55666 | 105.38353 | 33767 ft | 465 kts | 326° |
| 2026-04-27 09:24 | -4.50415 | 105.34624 | 33749 ft | 465 kts | 326° |
| 2026-04-27 09:24 | -4.45136 | 105.30878 | 33747 ft | 465 kts | 326° |
| 2026-04-27 09:25 | -4.39856 | 105.27130 | 33750 ft | 465 kts | 326° |
| 2026-04-27 09:25 | -4.34569 | 105.23379 | 33744 ft | 465 kts | 326° |
| 2026-04-27 09:26 | -4.29282 | 105.19631 | 33737 ft | 465 kts | 326° |
| 2026-04-27 09:26 | -4.27275 | 105.18209 | 33737 ft | 465 kts | 326° |
| 2026-04-27 09:27 | -4.23599 | 105.15601 | 33740 ft | 465 kts | 326° |
| 2026-04-27 09:28 | -4.18309 | 105.11848 | 33735 ft | 465 kts | 326° |
| 2026-04-27 09:28 | -4.13023 | 105.08101 | 33739 ft | 466 kts | 326° |
| 2026-04-27 09:29 | -4.07933 | 105.04089 | 33729 ft | 467 kts | 319° |
| 2026-04-27 09:29 | -4.03984 | 105.00393 | 33731 ft | 467 kts | 317° |
| 2026-04-27 09:30 | -3.98821 | 104.95476 | 33736 ft | 467 kts | 318° |
| 2026-04-27 09:30 | -3.94052 | 104.91037 | 33717 ft | 468 kts | 318° |
| 2026-04-27 09:31 | -3.89285 | 104.86594 | 33754 ft | 468 kts | 318° |
| 2026-04-27 09:31 | -3.84533 | 104.82134 | 33720 ft | 469 kts | 318° |
| 2026-04-27 09:32 | -3.79771 | 104.77674 | 33735 ft | 469 kts | 318° |
| 2026-04-27 09:32 | -3.75029 | 104.73249 | 33759 ft | 469 kts | 318° |